sensor_id;sensor_type;location;lat;lon;timestamp;pressure;altitude;pressure_sealevel;temperature;humidity
48862;BME280;34681;49.188;-0.374;2023-04-06T00:00:23;101652.13;;;13.91;61.20
48862;BME280;34681;49.188;-0.374;2023-04-06T00:02:48;101648.06;;;13.95;61.78
48862;BME280;34681;49.188;-0.374;2023-04-06T00:05:13;101649.66;;;13.88;61.95
48862;BME280;34681;49.188;-0.374;2023-04-06T00:07:40;101644.31;;;13.76;62.33
48862;BME280;34681;49.188;-0.374;2023-04-06T00:10:06;101648.53;;;13.90;62.22
48862;BME280;34681;49.188;-0.374;2023-04-06T00:12:31;101638.06;;;13.94;62.03
48862;BME280;34681;49.188;-0.374;2023-04-06T00:14:56;101636.47;;;13.82;62.51
48862;BME280;34681;49.188;-0.374;2023-04-06T00:17:22;101639.25;;;13.91;62.26
48862;BME280;34681;49.188;-0.374;2023-04-06T00:19:47;101638.22;;;13.92;62.48
48862;BME280;34681;49.188;-0.374;2023-04-06T00:22:12;101638.22;;;13.92;62.66
48862;BME280;34681;49.188;-0.374;2023-04-06T00:24:38;101634.34;;;13.66;63.13
48862;BME280;34681;49.188;-0.374;2023-04-06T00:27:03;101625.94;;;13.77;63.21
48862;BME280;34681;49.188;-0.374;2023-04-06T00:29:28;101634.31;;;13.85;63.00
48862;BME280;34681;49.188;-0.374;2023-04-06T00:31:54;101626.38;;;13.63;63.59
48862;BME280;34681;49.188;-0.374;2023-04-06T00:34:19;101623.34;;;13.66;63.30
48862;BME280;34681;49.188;-0.374;2023-04-06T00:36:45;101623.63;;;13.43;63.92
48862;BME280;34681;49.188;-0.374;2023-04-06T00:39:10;101620.28;;;13.40;64.08
48862;BME280;34681;49.188;-0.374;2023-04-06T00:41:36;101611.47;;;13.56;63.77
48862;BME280;34681;49.188;-0.374;2023-04-06T00:44:01;101612.06;;;13.59;63.59
48862;BME280;34681;49.188;-0.374;2023-04-06T00:46:28;101604.81;;;13.58;63.70
48862;BME280;34681;49.188;-0.374;2023-04-06T00:48:53;101608.72;;;13.65;63.07
48862;BME280;34681;49.188;-0.374;2023-04-06T00:51:18;101606.84;;;13.66;63.37
48862;BME280;34681;49.188;-0.374;2023-04-06T00:53:44;101592.53;;;13.33;63.97
48862;BME280;34681;49.188;-0.374;2023-04-06T00:56:10;101597.88;;;13.25;63.92
48862;BME280;34681;49.188;-0.374;2023-04-06T00:58:35;101594.38;;;13.23;64.51
48862;BME280;34681;49.188;-0.374;2023-04-06T01:01:04;101588.03;;;13.32;64.21
48862;BME280;34681;49.188;-0.374;2023-04-06T01:03:29;101581.22;;;13.36;63.72
48862;BME280;34681;49.188;-0.374;2023-04-06T01:05:55;101578.91;;;13.32;63.94
48862;BME280;34681;49.188;-0.374;2023-04-06T01:08:23;101577.59;;;13.45;63.70
48862;BME280;34681;49.188;-0.374;2023-04-06T01:10:49;101575.28;;;13.31;63.54
48862;BME280;34681;49.188;-0.374;2023-04-06T01:13:15;101569.94;;;13.20;64.19
48862;BME280;34681;49.188;-0.374;2023-04-06T01:15:41;101564.41;;;12.91;64.59
48862;BME280;34681;49.188;-0.374;2023-04-06T01:18:08;101566.84;;;13.04;64.65
48862;BME280;34681;49.188;-0.374;2023-04-06T01:20:35;101556.78;;;13.24;64.03
48862;BME280;34681;49.188;-0.374;2023-04-06T01:23:01;101561.13;;;13.26;63.98
48862;BME280;34681;49.188;-0.374;2023-04-06T01:25:26;101556.94;;;13.41;63.19
48862;BME280;34681;49.188;-0.374;2023-04-06T01:27:52;101548.53;;;13.43;63.17
48862;BME280;34681;49.188;-0.374;2023-04-06T01:30:17;101551.69;;;13.48;63.21
48862;BME280;34681;49.188;-0.374;2023-04-06T01:32:43;101550.72;;;13.49;63.31
48862;BME280;34681;49.188;-0.374;2023-04-06T01:35:08;101548.81;;;13.40;63.85
48862;BME280;34681;49.188;-0.374;2023-04-06T01:37:33;101545.06;;;13.31;63.91
48862;BME280;34681;49.188;-0.374;2023-04-06T01:39:59;101545.19;;;13.39;63.91
48862;BME280;34681;49.188;-0.374;2023-04-06T01:42:25;101548.53;;;13.24;63.89
48862;BME280;34681;49.188;-0.374;2023-04-06T01:44:51;101542.31;;;13.41;63.48
48862;BME280;34681;49.188;-0.374;2023-04-06T01:47:16;101544.06;;;13.32;63.98
48862;BME280;34681;49.188;-0.374;2023-04-06T01:49:42;101540.88;;;13.37;63.97
48862;BME280;34681;49.188;-0.374;2023-04-06T01:52:07;101537.09;;;13.28;64.10
48862;BME280;34681;49.188;-0.374;2023-04-06T01:54:32;101537.25;;;13.36;63.96
48862;BME280;34681;49.188;-0.374;2023-04-06T01:56:58;101536.69;;;13.42;63.63
48862;BME280;34681;49.188;-0.374;2023-04-06T01:59:23;101535.94;;;13.31;64.06
48862;BME280;34681;49.188;-0.374;2023-04-06T02:01:49;101537.56;;;13.33;63.97
48862;BME280;34681;49.188;-0.374;2023-04-06T02:04:15;101528.84;;;13.38;63.80
48862;BME280;34681;49.188;-0.374;2023-04-06T02:06:40;101530.44;;;13.40;63.57
48862;BME280;34681;49.188;-0.374;2023-04-06T02:09:06;101526.97;;;13.29;64.01
48862;BME280;34681;49.188;-0.374;2023-04-06T02:11:31;101522.19;;;13.31;64.30
48862;BME280;34681;49.188;-0.374;2023-04-06T02:13:56;101524.38;;;13.37;64.06
48862;BME280;34681;49.188;-0.374;2023-04-06T02:16:22;101524.09;;;13.30;64.31
48862;BME280;34681;49.188;-0.374;2023-04-06T02:18:49;101520.31;;;13.31;64.22
48862;BME280;34681;49.188;-0.374;2023-04-06T02:21:14;101516.56;;;13.42;63.84
48862;BME280;34681;49.188;-0.374;2023-04-06T02:23:45;101513.66;;;13.43;63.89
48862;BME280;34681;49.188;-0.374;2023-04-06T02:26:10;101514.34;;;13.55;63.35
48862;BME280;34681;49.188;-0.374;2023-04-06T02:28:35;101506.41;;;13.52;63.38
48862;BME280;34681;49.188;-0.374;2023-04-06T02:31:00;101507.00;;;13.46;63.95
48862;BME280;34681;49.188;-0.374;2023-04-06T02:33:26;101508.31;;;13.42;63.83
48862;BME280;34681;49.188;-0.374;2023-04-06T02:35:51;101507.47;;;13.41;63.87
48862;BME280;34681;49.188;-0.374;2023-04-06T02:38:17;101509.91;;;13.35;64.08
48862;BME280;34681;49.188;-0.374;2023-04-06T02:40:42;101506.88;;;13.38;63.97
48862;BME280;34681;49.188;-0.374;2023-04-06T02:43:07;101509.03;;;13.44;63.75
48862;BME280;34681;49.188;-0.374;2023-04-06T02:45:33;101500.50;;;13.37;64.08
48862;BME280;34681;49.188;-0.374;2023-04-06T02:47:58;101505.41;;;13.43;63.97
48862;BME280;34681;49.188;-0.374;2023-04-06T02:50:23;101505.13;;;13.46;63.82
48862;BME280;34681;49.188;-0.374;2023-04-06T02:52:49;101487.88;;;13.54;63.49
48862;BME280;34681;49.188;-0.374;2023-04-06T02:55:14;101487.31;;;13.51;63.44
48862;BME280;34681;49.188;-0.374;2023-04-06T02:57:40;101491.66;;;13.43;63.90
48862;BME280;34681;49.188;-0.374;2023-04-06T03:00:05;101487.03;;;13.44;63.92
48862;BME280;34681;49.188;-0.374;2023-04-06T03:02:31;101491.25;;;13.38;64.25
48862;BME280;34681;49.188;-0.374;2023-04-06T03:04:57;101482.28;;;13.27;64.52
48862;BME280;34681;49.188;-0.374;2023-04-06T03:07:22;101479.25;;;13.20;64.82
48862;BME280;34681;49.188;-0.374;2023-04-06T03:09:47;101478.09;;;13.23;64.56
48862;BME280;34681;49.188;-0.374;2023-04-06T03:12:13;101474.22;;;13.25;64.58
48862;BME280;34681;49.188;-0.374;2023-04-06T03:14:38;101472.84;;;13.39;64.08
48862;BME280;34681;49.188;-0.374;2023-04-06T03:17:03;101475.06;;;13.26;64.79
48862;BME280;34681;49.188;-0.374;2023-04-06T03:19:29;101474.63;;;13.30;64.87
48862;BME280;34681;49.188;-0.374;2023-04-06T03:21:54;101479.09;;;13.31;64.77
48862;BME280;34681;49.188;-0.374;2023-04-06T03:24:20;101470.59;;;13.25;64.62
48862;BME280;34681;49.188;-0.374;2023-04-06T03:26:45;101462.88;;;13.38;64.73
48862;BME280;34681;49.188;-0.374;2023-04-06T03:29:11;101463.00;;;13.46;64.48
48862;BME280;34681;49.188;-0.374;2023-04-06T03:31:36;101458.44;;;13.27;64.94
48862;BME280;34681;49.188;-0.374;2023-04-06T03:34:01;101459.56;;;13.44;64.59
48862;BME280;34681;49.188;-0.374;2023-04-06T03:36:27;101462.03;;;13.37;64.98
48862;BME280;34681;49.188;-0.374;2023-04-06T03:38:52;101451.63;;;13.41;64.68
48862;BME280;34681;49.188;-0.374;2023-04-06T03:41:20;101455.66;;;13.37;65.08
48862;BME280;34681;49.188;-0.374;2023-04-06T03:43:46;101449.31;;;13.17;65.50
48862;BME280;34681;49.188;-0.374;2023-04-06T03:46:11;101446.56;;;13.27;65.42
48862;BME280;34681;49.188;-0.374;2023-04-06T03:48:37;101455.94;;;13.14;65.99
48862;BME280;34681;49.188;-0.374;2023-04-06T03:51:02;101448.88;;;13.02;66.07
48862;BME280;34681;49.188;-0.374;2023-04-06T03:53:28;101453.50;;;13.11;66.21
48862;BME280;34681;49.188;-0.374;2023-04-06T03:55:53;101449.44;;;13.15;65.79
48862;BME280;34681;49.188;-0.374;2023-04-06T03:58:18;101442.66;;;13.10;66.12
48862;BME280;34681;49.188;-0.374;2023-04-06T04:00:44;101440.78;;;12.81;66.68
48862;BME280;34681;49.188;-0.374;2023-04-06T04:03:09;101437.88;;;12.73;66.96
48862;BME280;34681;49.188;-0.374;2023-04-06T04:05:35;101440.34;;;12.76;66.80
48862;BME280;34681;49.188;-0.374;2023-04-06T04:08:01;101432.53;;;12.81;67.17
48862;BME280;34681;49.188;-0.374;2023-04-06T04:10:26;101439.31;;;12.97;66.56
48862;BME280;34681;49.188;-0.374;2023-04-06T04:12:51;101434.44;;;13.00;66.29
48862;BME280;34681;49.188;-0.374;2023-04-06T04:15:17;101433.41;;;12.82;66.80
48862;BME280;34681;49.188;-0.374;2023-04-06T04:17:42;101431.53;;;12.63;67.54
48862;BME280;34681;49.188;-0.374;2023-04-06T04:20:12;101433.84;;;12.87;66.88
48862;BME280;34681;49.188;-0.374;2023-04-06T04:22:37;101427.03;;;13.10;66.25
48862;BME280;34681;49.188;-0.374;2023-04-06T04:25:03;101429.06;;;12.89;66.82
48862;BME280;34681;49.188;-0.374;2023-04-06T04:27:28;101430.09;;;12.78;67.25
48862;BME280;34681;49.188;-0.374;2023-04-06T04:29:53;101431.66;;;12.81;67.06
48862;BME280;34681;49.188;-0.374;2023-04-06T04:32:19;101425.63;;;12.68;67.87
48862;BME280;34681;49.188;-0.374;2023-04-06T04:34:44;101425.88;;;12.74;67.85
48862;BME280;34681;49.188;-0.374;2023-04-06T04:37:10;101421.13;;;12.76;67.39
48862;BME280;34681;49.188;-0.374;2023-04-06T04:39:35;101423.00;;;12.85;67.26
48862;BME280;34681;49.188;-0.374;2023-04-06T04:42:00;101419.25;;;12.86;67.11
48862;BME280;34681;49.188;-0.374;2023-04-06T04:44:26;101417.22;;;12.88;67.24
48862;BME280;34681;49.188;-0.374;2023-04-06T04:46:51;101414.19;;;12.91;67.15
48862;BME280;34681;49.188;-0.374;2023-04-06T04:49:17;101417.94;;;13.00;67.01
48862;BME280;34681;49.188;-0.374;2023-04-06T04:51:42;101408.38;;;13.04;67.01
48862;BME280;34681;49.188;-0.374;2023-04-06T04:54:07;101408.09;;;12.88;67.28
48862;BME280;34681;49.188;-0.374;2023-04-06T04:56:33;101402.06;;;12.75;67.76
48862;BME280;34681;49.188;-0.374;2023-04-06T04:58:58;101406.53;;;12.66;67.91
48862;BME280;34681;49.188;-0.374;2023-04-06T05:01:24;101404.78;;;12.65;67.98
48862;BME280;34681;49.188;-0.374;2023-04-06T05:03:49;101408.41;;;12.85;67.44
48862;BME280;34681;49.188;-0.374;2023-04-06T05:06:15;101400.72;;;12.98;67.12
48862;BME280;34681;49.188;-0.374;2023-04-06T05:08:41;101405.50;;;12.96;67.01
48862;BME280;34681;49.188;-0.374;2023-04-06T05:11:06;101404.94;;;12.83;67.24
48862;BME280;34681;49.188;-0.374;2023-04-06T05:13:31;101395.41;;;12.77;67.57
48862;BME280;34681;49.188;-0.374;2023-04-06T05:15:57;101389.19;;;12.56;68.26
48862;BME280;34681;49.188;-0.374;2023-04-06T05:18:22;101392.06;;;12.54;68.43
48862;BME280;34681;49.188;-0.374;2023-04-06T05:20:48;101382.97;;;12.54;68.35
48862;BME280;34681;49.188;-0.374;2023-04-06T05:23:13;101378.34;;;12.74;67.78
48862;BME280;34681;49.188;-0.374;2023-04-06T05:25:38;101381.34;;;12.90;67.33
48862;BME280;34681;49.188;-0.374;2023-04-06T05:28:04;101398.72;;;12.81;67.81
48862;BME280;34681;49.188;-0.374;2023-04-06T05:30:29;101391.75;;;12.96;67.28
48862;BME280;34681;49.188;-0.374;2023-04-06T05:32:55;101397.53;;;13.03;67.02
48862;BME280;34681;49.188;-0.374;2023-04-06T05:35:20;101395.56;;;12.76;67.79
48862;BME280;34681;49.188;-0.374;2023-04-06T05:37:46;101399.56;;;12.81;67.97
48862;BME280;34681;49.188;-0.374;2023-04-06T05:40:11;101403.06;;;12.83;67.81
48862;BME280;34681;49.188;-0.374;2023-04-06T05:42:41;101398.13;;;12.87;67.75
48862;BME280;34681;49.188;-0.374;2023-04-06T05:45:08;101400.31;;;12.83;67.89
48862;BME280;34681;49.188;-0.374;2023-04-06T05:47:34;101396.72;;;12.83;67.95
48862;BME280;34681;49.188;-0.374;2023-04-06T05:49:59;101391.91;;;12.94;67.95
48862;BME280;34681;49.188;-0.374;2023-04-06T05:52:25;101402.03;;;13.04;67.49
48862;BME280;34681;49.188;-0.374;2023-04-06T05:54:50;101399.41;;;13.12;67.46
48862;BME280;34681;49.188;-0.374;2023-04-06T05:57:15;101407.50;;;13.23;67.15
48862;BME280;34681;49.188;-0.374;2023-04-06T05:59:42;101403.72;;;13.14;67.40
48862;BME280;34681;49.188;-0.374;2023-04-06T06:02:07;101404.31;;;13.18;67.70
48862;BME280;34681;49.188;-0.374;2023-04-06T06:04:32;101395.81;;;13.21;67.56
48862;BME280;34681;49.188;-0.374;2023-04-06T06:06:58;101389.88;;;13.16;67.87
48862;BME280;34681;49.188;-0.374;2023-04-06T06:09:23;101387.84;;;13.18;67.78
48862;BME280;34681;49.188;-0.374;2023-04-06T06:11:49;101396.84;;;13.01;68.12
48862;BME280;34681;49.188;-0.374;2023-04-06T06:14:14;101393.47;;;13.16;67.80
48862;BME280;34681;49.188;-0.374;2023-04-06T06:16:40;101390.28;;;13.31;67.63
48862;BME280;34681;49.188;-0.374;2023-04-06T06:19:05;101389.69;;;13.37;67.31
48862;BME280;34681;49.188;-0.374;2023-04-06T06:21:31;101380.88;;;13.33;67.86
48862;BME280;34681;49.188;-0.374;2023-04-06T06:23:57;101386.50;;;13.41;67.50
48862;BME280;34681;49.188;-0.374;2023-04-06T06:26:22;101376.13;;;13.16;68.29
48862;BME280;34681;49.188;-0.374;2023-04-06T06:28:47;101381.28;;;13.38;68.07
48862;BME280;34681;49.188;-0.374;2023-04-06T06:31:13;101391.13;;;13.41;68.03
48862;BME280;34681;49.188;-0.374;2023-04-06T06:33:38;101381.94;;;13.60;67.72
48862;BME280;34681;49.188;-0.374;2023-04-06T06:36:04;101391.72;;;13.72;67.08
48862;BME280;34681;49.188;-0.374;2023-04-06T06:38:29;101377.78;;;14.11;66.11
48862;BME280;34681;49.188;-0.374;2023-04-06T06:40:55;101394.44;;;14.72;65.10
48862;BME280;34681;49.188;-0.374;2023-04-06T06:43:20;101398.53;;;14.68;65.35
48862;BME280;34681;49.188;-0.374;2023-04-06T06:45:45;101403.38;;;15.10;64.48
48862;BME280;34681;49.188;-0.374;2023-04-06T06:48:11;101397.03;;;15.61;62.67
48862;BME280;34681;49.188;-0.374;2023-04-06T06:50:37;101401.44;;;16.14;62.13
48862;BME280;34681;49.188;-0.374;2023-04-06T06:53:02;101403.47;;;17.44;59.37
48862;BME280;34681;49.188;-0.374;2023-04-06T06:55:28;101408.31;;;16.69;59.90
48862;BME280;34681;49.188;-0.374;2023-04-06T06:57:53;101406.34;;;16.53;59.55
48862;BME280;34681;49.188;-0.374;2023-04-06T07:00:19;101394.56;;;15.84;60.93
48862;BME280;34681;49.188;-0.374;2023-04-06T07:02:48;101408.69;;;17.06;58.83
48862;BME280;34681;49.188;-0.374;2023-04-06T07:05:14;101416.31;;;18.40;56.36
48862;BME280;34681;49.188;-0.374;2023-04-06T07:07:40;101413.50;;;21.43;49.94
48862;BME280;34681;49.188;-0.374;2023-04-06T07:10:06;101420.25;;;20.91;48.79
48862;BME280;34681;49.188;-0.374;2023-04-06T07:12:31;101433.94;;;21.57;48.51
48862;BME280;34681;49.188;-0.374;2023-04-06T07:15:01;101436.09;;;26.14;39.36
48862;BME280;34681;49.188;-0.374;2023-04-06T07:17:27;101443.75;;;27.87;36.67
48862;BME280;34681;49.188;-0.374;2023-04-06T07:19:52;101445.56;;;29.71;33.41
48862;BME280;34681;49.188;-0.374;2023-04-06T07:22:18;101446.63;;;31.67;30.10
48862;BME280;34681;49.188;-0.374;2023-04-06T07:24:43;101449.50;;;32.04;29.09
48862;BME280;34681;49.188;-0.374;2023-04-06T07:27:08;101452.06;;;33.46;27.54
48862;BME280;34681;49.188;-0.374;2023-04-06T07:29:34;101440.25;;;31.76;28.70
48862;BME280;34681;49.188;-0.374;2023-04-06T07:31:59;101434.47;;;29.30;31.76
48862;BME280;34681;49.188;-0.374;2023-04-06T07:34:25;101437.06;;;29.65;31.75
48862;BME280;34681;49.188;-0.374;2023-04-06T07:36:50;101450.28;;;31.62;30.25
48862;BME280;34681;49.188;-0.374;2023-04-06T07:39:17;101456.22;;;31.28;30.08
48862;BME280;34681;49.188;-0.374;2023-04-06T07:41:43;101449.03;;;29.27;32.01
48862;BME280;34681;49.188;-0.374;2023-04-06T07:44:08;101443.97;;;26.05;35.75
48862;BME280;34681;49.188;-0.374;2023-04-06T07:46:34;101455.28;;;24.14;38.98
48862;BME280;34681;49.188;-0.374;2023-04-06T07:49:00;101452.69;;;22.39;42.30
48862;BME280;34681;49.188;-0.374;2023-04-06T07:51:26;101450.84;;;21.83;43.91
48862;BME280;34681;49.188;-0.374;2023-04-06T07:53:52;101443.72;;;21.03;44.98
48862;BME280;34681;49.188;-0.374;2023-04-06T07:56:17;101441.44;;;20.20;46.83
48862;BME280;34681;49.188;-0.374;2023-04-06T07:58:43;101446.00;;;19.69;47.81
48862;BME280;34681;49.188;-0.374;2023-04-06T08:01:08;101453.09;;;20.30;47.33
48862;BME280;34681;49.188;-0.374;2023-04-06T08:03:35;101443.25;;;21.00;45.63
48862;BME280;34681;49.188;-0.374;2023-04-06T08:06:01;101453.50;;;20.12;47.56
48862;BME280;34681;49.188;-0.374;2023-04-06T08:08:26;101455.28;;;20.50;47.98
48862;BME280;34681;49.188;-0.374;2023-04-06T08:10:51;101446.97;;;20.20;47.86
48862;BME280;34681;49.188;-0.374;2023-04-06T08:13:17;101461.06;;;20.04;48.45
48862;BME280;34681;49.188;-0.374;2023-04-06T08:15:42;101452.78;;;20.40;48.43
48862;BME280;34681;49.188;-0.374;2023-04-06T08:18:08;101461.84;;;21.64;46.30
48862;BME280;34681;49.188;-0.374;2023-04-06T08:20:34;101467.75;;;20.39;47.44
48862;BME280;34681;49.188;-0.374;2023-04-06T08:23:00;101475.22;;;19.19;50.33
48862;BME280;34681;49.188;-0.374;2023-04-06T08:25:25;101480.16;;;19.31;50.69
48862;BME280;34681;49.188;-0.374;2023-04-06T08:27:51;101479.81;;;19.12;50.96
48862;BME280;34681;49.188;-0.374;2023-04-06T08:30:16;101476.84;;;19.74;50.29
48862;BME280;34681;49.188;-0.374;2023-04-06T08:32:44;101473.63;;;20.14;49.05
48862;BME280;34681;49.188;-0.374;2023-04-06T08:35:09;101472.47;;;21.81;46.50
48862;BME280;34681;49.188;-0.374;2023-04-06T08:37:35;101472.97;;;22.61;43.85
48862;BME280;34681;49.188;-0.374;2023-04-06T08:40:00;101469.34;;;23.68;42.36
48862;BME280;34681;49.188;-0.374;2023-04-06T08:42:26;101470.63;;;23.85;42.38
48862;BME280;34681;49.188;-0.374;2023-04-06T08:44:54;101464.66;;;24.53;40.38
48862;BME280;34681;49.188;-0.374;2023-04-06T08:47:21;101477.41;;;24.22;41.65
48862;BME280;34681;49.188;-0.374;2023-04-06T08:49:46;101478.03;;;24.44;39.92
48862;BME280;34681;49.188;-0.374;2023-04-06T08:52:12;101478.50;;;24.34;40.12
48862;BME280;34681;49.188;-0.374;2023-04-06T08:54:39;101482.59;;;24.32;40.43
48862;BME280;34681;49.188;-0.374;2023-04-06T08:57:05;101488.19;;;24.25;40.10
48862;BME280;34681;49.188;-0.374;2023-04-06T08:59:31;101483.53;;;23.73;40.02
48862;BME280;34681;49.188;-0.374;2023-04-06T09:01:57;101487.19;;;23.60;40.60
48862;BME280;34681;49.188;-0.374;2023-04-06T09:04:24;101491.22;;;23.58;40.32
48862;BME280;34681;49.188;-0.374;2023-04-06T09:06:51;101489.28;;;23.58;40.00
48862;BME280;34681;49.188;-0.374;2023-04-06T09:09:17;101492.50;;;23.35;40.11
48862;BME280;34681;49.188;-0.374;2023-04-06T09:11:47;101490.78;;;23.47;40.41
48862;BME280;34681;49.188;-0.374;2023-04-06T09:14:13;101487.03;;;22.87;40.32
48862;BME280;34681;49.188;-0.374;2023-04-06T09:16:41;101482.63;;;23.39;40.98
48862;BME280;34681;49.188;-0.374;2023-04-06T09:19:07;101483.31;;;22.80;40.60
48862;BME280;34681;49.188;-0.374;2023-04-06T09:21:33;101487.28;;;22.45;42.00
48862;BME280;34681;49.188;-0.374;2023-04-06T09:23:59;101489.31;;;22.70;41.33
48862;BME280;34681;49.188;-0.374;2023-04-06T09:26:25;101485.59;;;22.15;41.88
48862;BME280;34681;49.188;-0.374;2023-04-06T09:28:53;101488.59;;;22.14;41.95
48862;BME280;34681;49.188;-0.374;2023-04-06T09:31:25;101480.91;;;22.23;42.27
48862;BME280;34681;49.188;-0.374;2023-04-06T09:33:51;101483.56;;;21.47;43.44
48862;BME280;34681;49.188;-0.374;2023-04-06T09:36:28;101489.91;;;21.19;43.77
48862;BME280;34681;49.188;-0.374;2023-04-06T09:38:59;101490.03;;;21.54;42.74
48862;BME280;34681;49.188;-0.374;2023-04-06T09:41:27;101494.19;;;21.37;41.71
48862;BME280;34681;49.188;-0.374;2023-04-06T09:44:07;101485.97;;;21.14;42.82
48862;BME280;34681;49.188;-0.374;2023-04-06T09:46:36;101494.94;;;20.73;43.47
48862;BME280;34681;49.188;-0.374;2023-04-06T09:49:02;101494.59;;;20.32;43.63
48862;BME280;34681;49.188;-0.374;2023-04-06T09:51:36;101491.22;;;20.07;44.43
48862;BME280;34681;49.188;-0.374;2023-04-06T09:54:02;101495.50;;;19.65;44.67
48862;BME280;34681;49.188;-0.374;2023-04-06T09:56:33;101496.38;;;19.20;45.63
48862;BME280;34681;49.188;-0.374;2023-04-06T09:59:04;101493.94;;;18.94;44.97
48862;BME280;34681;49.188;-0.374;2023-04-06T10:01:32;101496.88;;;19.23;44.72
48862;BME280;34681;49.188;-0.374;2023-04-06T10:06:51;101500.41;;;19.78;43.67
48862;BME280;34681;49.188;-0.374;2023-04-06T10:09:18;101495.06;;;20.06;43.17
48862;BME280;34681;49.188;-0.374;2023-04-06T10:11:47;101494.56;;;20.17;42.39
48862;BME280;34681;49.188;-0.374;2023-04-06T10:14:15;101478.19;;;20.37;42.43
48862;BME280;34681;49.188;-0.374;2023-04-06T10:16:40;101481.16;;;19.91;43.53
48862;BME280;34681;49.188;-0.374;2023-04-06T10:19:14;101496.03;;;20.28;43.13
48862;BME280;34681;49.188;-0.374;2023-04-06T10:21:45;101484.31;;;20.32;42.75
48862;BME280;34681;49.188;-0.374;2023-04-06T10:24:13;101491.59;;;20.18;43.04
48862;BME280;34681;49.188;-0.374;2023-04-06T10:26:39;101483.44;;;19.73;43.27
48862;BME280;34681;49.188;-0.374;2023-04-06T10:29:05;101488.22;;;19.18;44.21
48862;BME280;34681;49.188;-0.374;2023-04-06T10:31:31;101478.72;;;18.90;44.52
48862;BME280;34681;49.188;-0.374;2023-04-06T10:33:58;101487.47;;;19.01;45.14
48862;BME280;34681;49.188;-0.374;2023-04-06T10:36:26;101486.19;;;18.50;46.08
48862;BME280;34681;49.188;-0.374;2023-04-06T10:39:00;101496.31;;;18.35;47.00
48862;BME280;34681;49.188;-0.374;2023-04-06T10:41:33;101490.88;;;18.49;46.70
48862;BME280;34681;49.188;-0.374;2023-04-06T10:43:59;101486.44;;;18.40;47.15
48862;BME280;34681;49.188;-0.374;2023-04-06T10:46:30;101489.50;;;18.53;47.48
48862;BME280;34681;49.188;-0.374;2023-04-06T10:48:56;101479.31;;;18.46;48.37
48862;BME280;34681;49.188;-0.374;2023-04-06T10:51:26;101496.38;;;18.97;47.67
48862;BME280;34681;49.188;-0.374;2023-04-06T10:53:53;101492.38;;;18.68;47.68
48862;BME280;34681;49.188;-0.374;2023-04-06T10:56:22;101489.34;;;19.09;46.77
48862;BME280;34681;49.188;-0.374;2023-04-06T10:58:51;101500.19;;;19.42;46.38
48862;BME280;34681;49.188;-0.374;2023-04-06T11:01:20;101503.41;;;19.30;45.23
48862;BME280;34681;49.188;-0.374;2023-04-06T11:03:55;101502.41;;;19.46;44.91
48862;BME280;34681;49.188;-0.374;2023-04-06T11:06:21;101504.31;;;19.23;45.32
48862;BME280;34681;49.188;-0.374;2023-04-06T11:08:47;101508.50;;;19.42;45.11
48862;BME280;34681;49.188;-0.374;2023-04-06T11:11:15;101505.66;;;19.50;45.09
48862;BME280;34681;49.188;-0.374;2023-04-06T11:13:45;101497.91;;;19.45;45.49
48862;BME280;34681;49.188;-0.374;2023-04-06T11:16:15;101503.94;;;18.80;46.58
48862;BME280;34681;49.188;-0.374;2023-04-06T11:18:53;101499.69;;;18.53;47.72
48862;BME280;34681;49.188;-0.374;2023-04-06T11:21:29;101501.16;;;18.80;47.34
48862;BME280;34681;49.188;-0.374;2023-04-06T11:24:17;101488.38;;;18.71;46.09
48862;BME280;34681;49.188;-0.374;2023-04-06T11:26:56;101488.16;;;18.41;47.23
48862;BME280;34681;49.188;-0.374;2023-04-06T11:29:29;101492.47;;;18.83;47.00
48862;BME280;34681;49.188;-0.374;2023-04-06T11:32:05;101489.69;;;18.83;46.45
48862;BME280;34681;49.188;-0.374;2023-04-06T11:34:36;101501.09;;;18.88;46.11
48862;BME280;34681;49.188;-0.374;2023-04-06T11:37:06;101486.50;;;18.63;45.65
48862;BME280;34681;49.188;-0.374;2023-04-06T11:39:40;101486.16;;;18.58;45.91
48862;BME280;34681;49.188;-0.374;2023-04-06T11:42:06;101487.25;;;18.49;46.68
48862;BME280;34681;49.188;-0.374;2023-04-06T11:44:38;101485.72;;;18.46;46.74
48862;BME280;34681;49.188;-0.374;2023-04-06T11:47:06;101480.47;;;18.20;47.00
48862;BME280;34681;49.188;-0.374;2023-04-06T11:49:36;101479.34;;;17.90;48.21
48862;BME280;34681;49.188;-0.374;2023-04-06T11:52:02;101484.97;;;18.13;48.43
48862;BME280;34681;49.188;-0.374;2023-04-06T11:54:34;101463.72;;;18.06;48.06
48862;BME280;34681;49.188;-0.374;2023-04-06T11:57:01;101470.78;;;18.08;47.69
48862;BME280;34681;49.188;-0.374;2023-04-06T11:59:27;101473.47;;;18.33;48.60
48862;BME280;34681;49.188;-0.374;2023-04-06T12:01:53;101463.22;;;18.41;47.25
48862;BME280;34681;49.188;-0.374;2023-04-06T12:04:19;101459.00;;;18.85;47.17
48862;BME280;34681;49.188;-0.374;2023-04-06T12:06:44;101472.75;;;19.24;45.84
48862;BME280;34681;49.188;-0.374;2023-04-06T12:09:10;101479.28;;;19.31;45.74
48862;BME280;34681;49.188;-0.374;2023-04-06T12:11:35;101469.78;;;19.02;45.48
48862;BME280;34681;49.188;-0.374;2023-04-06T12:14:00;101476.38;;;19.24;45.78
48862;BME280;34681;49.188;-0.374;2023-04-06T12:16:29;101483.03;;;19.61;44.47
48862;BME280;34681;49.188;-0.374;2023-04-06T12:18:55;101476.38;;;19.70;41.96
48862;BME280;34681;49.188;-0.374;2023-04-06T12:21:21;101477.16;;;20.08;42.54
48862;BME280;34681;49.188;-0.374;2023-04-06T12:23:46;101479.44;;;20.34;41.56
48862;BME280;34681;49.188;-0.374;2023-04-06T12:26:11;101471.50;;;19.87;42.22
48862;BME280;34681;49.188;-0.374;2023-04-06T12:28:37;101479.41;;;19.75;42.98
48862;BME280;34681;49.188;-0.374;2023-04-06T12:31:02;101472.66;;;19.78;42.71
48862;BME280;34681;49.188;-0.374;2023-04-06T12:33:27;101477.03;;;19.49;42.93
48862;BME280;34681;49.188;-0.374;2023-04-06T12:35:53;101482.66;;;19.41;43.91
48862;BME280;34681;49.188;-0.374;2023-04-06T12:38:18;101479.03;;;19.18;44.30